x

Buoy A01 - Mass. Bay/stellwagen (44029) Wave Buoy

10:04 - Tue 23rd May 2017 All times are EDT. -4 hours from GMT.

  • Sig Wave height 1.6ft
  • Peak Period 5s
  • Wind
    11mph, 13mph gusts
  • Sea Temp 54°f
  • Aire Temp 55°f
  • Sea Pressure 1009.1mb
  • Buoy A01 - Mass. Bay/stellwagen
  • Buoy A01 - Mass. Bay/stellwagen

More Historic Weather Station data

Upgrade to MSW Pro to gain access to the past 30 days of data for over 8000 Wavebouys and Weather Stations around the globe.

Join Pro

Comparision Forecast

View Surf forecast
   
mar 05/23 10:04 1.6ft 5s 11 13 mph 1009.1mb 54f 55f
9:04 1.6ft 6s 11 11 mph 1009.3mb 54f 55f
8:04 1.6ft 6s 11 13 mph 1009mb 54f 54f
7:04  -   -  7 9 mph 1009.3mb 55f 55f
6:04 1.6ft 6s 7 7 mph 1009.1mb 55f 55f
5:04  -   -  7 7 mph 1009.4mb 55f 55f
4:04 1ft 6s 7 7 mph 1010mb 55f 55f
3:04 1ft 6s 7 9 mph 1010.2mb 55f 55f
2:04 1.3ft 7s 7 7 mph 1010.5mb 55f 55f
1:04 1.6ft 6s 9 9 mph 1011.4mb 54f 54f
12:04 1.6ft 6s 7 9 mph 1011.9mb 54f 53f
11:04 2ft 7s 9 11 mph 1012.3mb 54f 52f
10:04 2.5ft 6s 9 11 mph 1012.6mb 53f 52f
9:04 1.6ft 6s 11 13 mph 1012.9mb 53f 52f
8:04 1.3ft 6s 7 7 mph 1012.7mb 53f 53f
7:04 1.3ft 5s 9 13 mph 1012.9mb 53f 52f
6:04 1.3ft 5s 7 9 mph 1012.5mb 53f 53f
5:04 1.3ft 5s 7 9 mph 1012.3mb 53f 52f
4:04 1.3ft 4s 9 9 mph 1012.4mb 53f 52f
3:04 2ft 4s 9 11 mph 1012.6mb 53f 52f
2:04 3ft 4s 9 11 mph 1012.8mb 53f 53f
1:04 2.5ft 5s 7 9 mph 1013.6mb 53f 53f
12:04 2.5ft 4s 2 2 mph 1014.2mb 53f 53f
lun 05/22 11:04 3ft 4s 7 9 mph 1014.5mb 53f 53f
10:04 3ft 4s 11 13 mph 1015.1mb 53f 53f
9:04 3ft 4s 13 16 mph 1015.7mb 54f 53f
8:04 3.5ft 4s 11 13 mph 1016mb 54f 52f
7:04 3ft 4s 16 18 mph 1016.8mb 54f 52f
6:04 2.5ft 4s 16 20 mph 1017.2mb 54f 53f
5:04 2ft 3s 16 18 mph 1017.9mb 54f 53f
4:04 1.6ft 3s 11 16 mph 1019mb 54f 52f
3:04 1.6ft 3s 16 18 mph 1019.7mb 54f 50f
2:04 1ft 3s 16 20 mph 1020.5mb 54f 51f
1:04 2ft 3s 9 11 mph 1021.2mb 54f 52f
12:04 2ft 3s 16 20 mph 1021.8mb 54f 52f
11:04 1.6ft 3s 11 11 mph 1022mb 54f 53f
10:04 1ft 3s 11 13 mph 1022.1mb 53f 53f
9:04 0.3ft  -  11 16 mph 1022.3mb 53f 53f
8:04 0.7ft  -  11 13 mph 1022.8mb 53f 54f
7:04 0.3ft  -  9 11 mph 1022.7mb 54f 54f
6:04 0.7ft  -  9 11 mph 1022.5mb 54f 54f
5:04 1ft 3s 7 9 mph 1022.5mb 54f 55f
4:04 1ft 3s 11 11 mph 1022.5mb 54f 55f
3:04 1.6ft 3s 11 11 mph 1022.3mb 55f 55f
2:04 2ft 3s 9 11 mph 1023.2mb 54f 55f
1:04 2ft 3s 11 13 mph 1023.5mb 54f 55f
12:04 2.5ft 3s 13 16 mph 1023.5mb 54f 55f
dom 05/21 11:04 1.6ft 3s 16 18 mph 1023.7mb 54f 56f
10:04 1.6ft 3s 13 16 mph 1024.5mb 55f 56f
9:04 1ft 3s 13 16 mph 1024.7mb 55f 56f
8:04  -   -  11 13 mph 1024.7mb 55f 56f
7:04 1ft 2s 9 11 mph 1024.9mb 56f 56f
6:04 0.7ft  -  11 13 mph 1025.1mb 55f 56f
5:04  -   -  11 11 mph 1025.5mb 56f 56f
4:04 1ft 4s 9 9 mph 1025.9mb 56f 55f
3:04 1ft 3s 7 9 mph 1026.6mb 56f 55f
2:04 1ft 3s 4 7 mph 1027.6mb 56f 55f
1:04 1ft 3s 4 4 mph 1028.3mb 56f 54f
12:04 1ft 3s 4 7 mph 1028.4mb 55f 54f
11:04 0.7ft  -  4 7 mph 1029.2mb 54f 54f
10:04 0.7ft  -  7 9 mph 1028.9mb 54f 53f
9:04 1ft 5s 9 11 mph 1028.8mb 53f 53f
8:04 1.3ft 4s 13 16 mph 1028.4mb 54f 53f
7:04 1ft 4s 9 9 mph 1028.2mb 53f 53f
6:04 1.3ft 4s 2 2 mph 1027.6mb 53f 54f
5:04 1ft 5s 2 2 mph 1027.3mb 53f 53f
4:04 1.3ft 5s 2 2 mph 1027mb 53f 53f
3:04 1.3ft 5s 2 2 mph 1026.6mb 53f 54f
2:04 1ft 5s 7 7 mph 1026.6mb 53f 54f
1:04 1ft 5s 7 7 mph 1026.5mb 54f 54f
12:04 1.3ft 5s 7 7 mph 1026.3mb 54f 55f
sáb 05/20 11:04 1.3ft 8s 9 11 mph 1026mb 54f 55f
10:04 1.3ft 3s 9 11 mph 1025.8mb 54f 54f
9:04 1.3ft 6s 9 11 mph 1025.1mb 54f 54f
8:04 1.3ft 2s 9 11 mph 1024.4mb 54f 54f
7:04 1.6ft 4s 11 11 mph 1024.5mb 54f 54f
6:04 1.6ft 4s 11 13 mph 1024.6mb 53f 53f
5:04 1.6ft 4s 9 11 mph 1024.6mb 53f 54f
4:04 2.5ft 4s 9 11 mph 1024.9mb 54f 53f
3:04 1.6ft 4s 7 9 mph 1025.1mb 53f 52f
2:04  -   -  11 11 mph 1025.1mb 53f 52f
1:04 1.6ft 4s 11 11 mph 1025.3mb 53f 52f
12:04 1.3ft 4s 11 13 mph 1025.4mb 53f 52f
11:04 1ft 7s 13 16 mph 1025.3mb 53f 52f
10:04 1.3ft 4s 16 18 mph 1025.1mb 53f 52f
9:04 1ft 5s 9 11 mph 1024.9mb 52f 52f
8:04 1.3ft 5s 13 18 mph 1023.8mb 52f 53f
7:04 2ft 14s 13 16 mph 1023.1mb 51f 52f
6:04 2.5ft 5s 11 13 mph 1022.1mb 51f 53f
5:04 4.5ft 5s 13 16 mph 1020.9mb 51f 53f